Time;durP1;ratioP1;P1;durP2;ratioP2;P2;SDS_P1;SDS_P2;PMS_P1;PMS_P2;Temp;Humidity;BMP_temperature;BMP_pressure;BME280_temperature;BME280_humidity;BME280_pressure;Samples;Min_cycle;Max_cycle;Signal;HPM_P1;HPM_P2
2022/08/11 00:00:05;;;;;;;1.90;1.80;;;24.10;89.00;;;;;;4996081;28;20239;-67
2022/08/11 00:02:37;;;;;;;4.35;2.38;;;24.10;89.00;;;;;;5008795;28;20213;-68
2022/08/11 00:05:10;;;;;;;2.20;2.08;;;24.10;89.20;;;;;;5009399;28;20205;-68
2022/08/11 00:07:49;;;;;;;2.30;1.98;;;24.00;89.40;;;;;;5008937;28;20197;-67
2022/08/11 00:10:18;;;;;;;3.00;2.30;;;24.00;89.50;;;;;;5009207;28;20220;-67
2022/08/11 00:12:51;;;;;;;3.33;2.28;;;24.00;89.50;;;;;;5007246;28;20220;-68
2022/08/11 00:15:19;;;;;;;4.68;2.40;;;23.90;89.60;;;;;;4989411;28;20645;-68
2022/08/11 00:17:48;;;;;;;4.00;2.80;;;23.90;89.60;;;;;;4989882;28;20230;-67
2022/08/11 00:20:15;;;;;;;2.20;2.08;;;23.80;89.70;;;;;;5008953;28;20664;-68
2022/08/11 00:22:45;;;;;;;2.42;2.22;;;23.80;89.70;;;;;;5008493;28;20229;-68
2022/08/11 00:25:15;;;;;;;4.03;1.90;;;23.80;89.90;;;;;;4988981;28;20213;-68
2022/08/11 00:27:42;;;;;;;2.95;2.20;;;23.80;90.00;;;;;;4989487;28;20216;-68
2022/08/11 00:30:12;;;;;;;3.65;2.20;;;23.70;90.00;;;;;;5008552;28;20988;-68
2022/08/11 00:32:41;;;;;;;3.22;1.90;;;23.70;90.10;;;;;;4995320;28;20225;-68
2022/08/11 00:35:13;;;;;;;2.70;2.08;;;23.70;90.10;;;;;;4989029;28;20264;-68
2022/08/11 00:37:48;;;;;;;3.65;1.77;;;23.60;90.10;;;;;;4988712;28;20638;-68
2022/08/11 00:40:36;;;;;;;4.40;1.90;;;23.60;90.10;;;;;;4989264;28;20252;-68
2022/08/11 00:43:16;;;;;;;2.20;2.00;;;23.50;90.20;;;;;;5004312;28;20194;-68
2022/08/11 00:45:53;;;;;;;2.28;2.08;;;23.50;90.30;;;;;;5008573;28;20200;-68
2022/08/11 00:48:29;;;;;;;2.35;2.08;;;23.50;90.30;;;;;;5003589;28;20201;-68
2022/08/11 00:51:26;;;;;;;3.17;2.00;;;23.50;90.30;;;;;;5008361;28;20224;-68
2022/08/11 00:54:06;;;;;;;2.50;2.30;;;23.40;90.30;;;;;;5008085;28;20212;-68
2022/08/11 00:57:11;;;;;;;2.30;2.10;;;23.40;90.50;;;;;;5007885;28;20193;-68
2022/08/11 01:00:02;;;;;;;6.28;2.20;;;23.40;90.60;;;;;;5001951;28;20230;-68
2022/08/11 01:02:46;;;;;;;6.18;2.13;;;23.30;90.70;;;;;;4988316;28;20693;-68
2022/08/11 01:05:34;;;;;;;4.00;1.80;;;23.30;90.70;;;;;;4988372;28;20709;-68
2022/08/11 01:08:52;;;;;;;2.03;1.90;;;23.30;90.70;;;;;;4988436;28;20204;-68
2022/08/11 01:12:10;;;;;;;2.80;1.95;;;23.20;90.80;;;;;;5000367;28;20210;-68
2022/08/11 01:15:14;;;;;;;3.65;2.20;;;23.20;90.80;;;;;;4932098;29;20215;-68
2022/08/11 01:18:17;;;;;;;4.47;2.30;;;23.20;90.90;;;;;;4987845;28;20708;-69
2022/08/11 01:21:24;;;;;;;3.45;2.30;;;23.10;91.00;;;;;;4987930;28;20253;-68
2022/08/11 01:24:35;;;;;;;3.33;2.10;;;23.10;91.00;;;;;;4988606;28;20209;-67
2022/08/11 01:27:32;;;;;;;2.30;2.10;;;23.00;91.00;;;;;;4988070;28;20194;-68
2022/08/11 01:30:20;;;;;;;3.30;2.42;;;23.00;91.10;;;;;;4988335;28;20200;-68
2022/08/11 01:33:26;;;;;;;2.67;1.83;;;23.00;91.30;;;;;;4991600;28;20277;-68
2022/08/11 01:36:50;;;;;;;2.13;2.03;;;22.90;91.40;;;;;;4987887;28;21097;-68
2022/08/11 01:39:54;;;;;;;3.35;2.17;;;22.90;91.50;;;;;;4988294;28;20213;-68
2022/08/11 01:45:55;;;;;;;2.22;2.05;;;22.80;91.40;;;;;;4992836;28;20216;-68
2022/08/11 01:48:34;;;;;;;1.80;1.70;;;22.80;91.40;;;;;;5007876;28;20208;-68
2022/08/11 01:51:29;;;;;;;5.55;2.30;;;22.80;91.50;;;;;;5007704;28;20288;-68
2022/08/11 01:54:02;;;;;;;3.67;2.25;;;22.70;91.50;;;;;;5007285;28;20280;-68
2022/08/11 01:56:56;;;;;;;2.67;2.40;;;22.70;91.50;;;;;;5007751;28;20197;-68
2022/08/11 01:59:29;;;;;;;3.17;2.33;;;22.70;91.50;;;;;;5001506;28;20232;-68
2022/08/11 02:02:44;;;;;;;3.40;2.28;;;22.70;91.50;;;;;;4988098;28;20229;-67
2022/08/11 02:05:20;;;;;;;3.40;2.20;;;22.60;91.60;;;;;;4992085;28;20208;-68
2022/08/11 02:07:59;;;;;;;2.17;1.95;;;22.50;91.70;;;;;;5007641;28;20201;-68
2022/08/11 02:13:24;;;;;;;3.00;2.20;;;22.50;91.60;;;;;;4990460;28;20248;-69
2022/08/11 02:16:03;;;;;;;2.30;2.10;;;22.50;91.50;;;;;;5002165;28;20193;-67
2022/08/11 02:24:26;;;;;;;3.40;1.92;;;22.30;91.60;;;;;;5011111;28;20197;-67
2022/08/11 02:27:07;;;;;;;2.70;1.77;;;22.30;91.80;;;;;;4992435;28;20665;-66
2022/08/11 02:29:44;;;;;;;2.28;1.85;;;22.30;91.80;;;;;;4989551;28;20225;-66
2022/08/11 02:35:55;;;;;;;3.80;2.28;;;22.30;92.00;;;;;;4997366;28;20339;-66
2022/08/11 02:38:29;;;;;;;4.78;2.25;;;22.30;92.10;;;;;;5008873;28;20665;-66
2022/08/11 02:41:02;;;;;;;2.20;2.10;;;22.20;92.10;;;;;;5008614;28;20193;-66
2022/08/11 02:43:41;;;;;;;3.35;2.15;;;22.20;92.30;;;;;;5009022;28;20201;-67
2022/08/11 02:49:54;;;;;;;3.97;2.20;;;22.10;92.60;;;;;;5003372;28;20283;-67
2022/08/11 02:52:30;;;;;;;3.95;2.22;;;22.10;92.70;;;;;;5008415;28;20204;-67
2022/08/11 02:55:22;;;;;;;4.32;2.13;;;22.00;92.80;;;;;;5005537;28;20197;-67
2022/08/11 02:57:57;;;;;;;2.65;2.38;;;22.00;93.00;;;;;;4986808;28;20210;-67
2022/08/11 03:00:26;;;;;;;3.10;2.40;;;21.90;93.00;;;;;;4988380;28;20237;-67
2022/08/11 03:03:05;;;;;;;2.40;2.30;;;21.90;93.20;;;;;;4994053;28;20303;-65
2022/08/11 03:05:43;;;;;;;5.88;2.45;;;21.90;93.40;;;;;;5003883;28;20280;-67
2022/08/11 03:08:23;;;;;;;2.20;2.00;;;21.90;93.40;;;;;;4990929;28;20233;-67
2022/08/11 03:16:58;;;;;;;2.40;2.17;;;21.90;93.20;;;;;;5009711;28;20251;-67
2022/08/11 03:19:36;;;;;;;2.67;2.42;;;21.80;93.00;;;;;;5010106;28;20341;-66
2022/08/11 03:22:12;;;;;;;2.38;2.20;;;21.80;93.10;;;;;;5010083;28;20228;-67
2022/08/11 03:25:18;;;;;;;2.40;2.20;;;21.80;93.10;;;;;;5009297;28;20197;-67
2022/08/11 03:27:53;;;;;;;2.55;2.28;;;21.70;93.10;;;;;;5009184;28;20736;-66
2022/08/11 03:30:32;;;;;;;3.88;2.15;;;21.70;93.40;;;;;;5009625;28;20677;-67
2022/08/11 03:36:20;;;;;;;3.83;2.28;;;21.70;93.50;;;;;;5009741;28;20560;-67
2022/08/11 03:39:01;;;;;;;2.65;2.38;;;21.70;93.50;;;;;;5009174;28;20202;-67
2022/08/11 03:41:44;;;;;;;2.88;2.58;;;21.70;93.70;;;;;;5009424;28;20197;-67
2022/08/11 03:44:33;;;;;;;4.70;2.40;;;21.70;93.70;;;;;;5009636;28;20256;-67
2022/08/11 03:47:12;;;;;;;4.70;2.55;;;21.60;93.80;;;;;;5006549;28;20217;-67
2022/08/11 03:49:51;;;;;;;3.05;2.40;;;21.60;94.00;;;;;;5008783;28;20209;-67
2022/08/11 03:52:28;;;;;;;2.47;2.22;;;21.60;94.20;;;;;;5009588;28;20200;-67
2022/08/11 03:55:14;;;;;;;3.33;2.70;;;21.50;94.30;;;;;;5009290;28;20687;-67
2022/08/11 03:58:17;;;;;;;2.63;2.33;;;21.50;94.40;;;;;;5009454;28;20198;-67
2022/08/11 04:01:07;;;;;;;5.93;3.05;;;21.50;94.50;;;;;;5008869;28;20237;-67
2022/08/11 04:04:10;;;;;;;4.80;2.83;;;21.50;94.60;;;;;;5009301;28;20230;-67
2022/08/11 04:07:14;;;;;;;3.20;2.80;;;21.50;94.70;;;;;;5009210;28;20196;-67
2022/08/11 04:10:25;;;;;;;6.53;3.63;;;21.40;94.70;;;;;;5008685;28;20560;-66
2022/08/11 04:13:17;;;;;;;7.93;3.70;;;21.40;94.70;;;;;;5008893;28;20665;-67
2022/08/11 04:16:20;;;;;;;5.88;4.18;;;21.40;94.70;;;;;;5009039;28;20194;-67
2022/08/11 04:19:09;;;;;;;4.40;2.97;;;21.40;94.60;;;;;;5009003;28;20267;-67
2022/08/11 04:22:01;;;;;;;4.53;3.20;;;21.40;94.60;;;;;;4995663;28;20205;-67
2022/08/11 04:25:02;;;;;;;4.60;3.22;;;21.40;94.70;;;;;;4997379;28;20675;-68
2022/08/11 04:28:21;;;;;;;5.22;3.50;;;21.40;94.70;;;;;;5008327;28;20197;-69
2022/08/11 04:31:05;;;;;;;3.88;3.28;;;21.40;94.60;;;;;;5008640;28;20193;-67
2022/08/11 04:34:05;;;;;;;13.90;4.68;;;21.40;94.70;;;;;;5008409;28;20202;-67
2022/08/11 04:40:19;;;;;;;7.97;4.00;;;21.40;94.70;;;;;;5008476;28;20343;-67
2022/08/11 04:43:39;;;;;;;6.55;3.67;;;21.40;94.70;;;;;;5008503;28;20222;-67
2022/08/11 04:46:54;;;;;;;5.43;4.03;;;21.40;94.70;;;;;;4928301;29;20327;-67
2022/08/11 05:02:37;;;;;;;7.97;4.85;;;21.40;95.00;;;;;;5007963;28;20260;-67
2022/08/11 05:05:31;;;;;;;14.18;4.97;;;21.50;95.00;;;;;;4974945;28;20208;-67
2022/08/11 05:08:39;;;;;;;11.85;4.65;;;21.50;95.00;;;;;;5001494;28;20237;-67
2022/08/11 05:11:46;;;;;;;16.10;5.43;;;21.50;95.00;;;;;;5007183;28;20572;-67
2022/08/11 05:37:10;;;;;;;16.38;4.68;;;21.80;95.00;;;;;;5007587;28;20281;-68
2022/08/11 05:56:42;;;;;;;14.13;3.78;;;22.00;94.40;;;;;;5011228;28;20199;-68
2022/08/11 05:59:14;;;;;;;9.52;3.80;;;22.00;94.30;;;;;;5011476;28;20237;-68
2022/08/11 06:01:43;;;;;;;11.40;3.22;;;22.10;94.40;;;;;;5011066;28;20652;-68
2022/08/11 06:04:17;;;;;;;20.70;4.45;;;22.10;94.40;;;;;;5011564;28;20232;-69
2022/08/11 06:06:51;;;;;;;18.20;4.85;;;22.20;94.50;;;;;;5011393;28;20251;-68
2022/08/11 06:09:23;;;;;;;3.80;3.22;;;22.20;94.40;;;;;;5011427;28;20653;-69
2022/08/11 06:11:51;;;;;;;4.07;3.20;;;22.30;94.10;;;;;;5010996;28;20200;-68
2022/08/11 06:14:19;;;;;;;9.85;3.38;;;22.30;93.90;;;;;;5011565;28;20296;-68
2022/08/11 06:16:50;;;;;;;4.22;3.25;;;22.30;93.70;;;;;;5010869;28;20229;-68
2022/08/11 06:19:22;;;;;;;3.78;2.95;;;22.40;93.20;;;;;;5011382;28;20324;-68
2022/08/11 06:21:50;;;;;;;5.32;3.55;;;22.40;92.90;;;;;;5010925;28;20645;-68
2022/08/11 06:24:18;;;;;;;5.00;3.35;;;22.50;92.80;;;;;;5011152;28;20832;-68
2022/08/11 06:26:49;;;;;;;6.28;3.45;;;22.60;92.60;;;;;;5010623;28;20215;-66
2022/08/11 06:29:17;;;;;;;4.45;3.00;;;22.60;92.30;;;;;;5010838;28;20713;-66
2022/08/11 06:31:53;;;;;;;4.38;3.20;;;22.60;92.30;;;;;;5010750;28;20300;-68
2022/08/11 06:34:32;;;;;;;3.63;3.35;;;22.70;92.40;;;;;;5011032;28;20196;-68
2022/08/11 06:37:14;;;;;;;3.15;2.95;;;22.70;92.30;;;;;;5010990;28;20208;-68
2022/08/11 06:39:48;;;;;;;5.05;3.38;;;22.70;92.40;;;;;;5010850;28;20189;-68
2022/08/11 06:42:37;;;;;;;3.47;3.05;;;22.80;92.50;;;;;;5010537;28;20225;-68
2022/08/11 06:45:12;;;;;;;4.72;3.75;;;22.80;92.10;;;;;;5007288;28;20324;-68
2022/08/11 06:47:46;;;;;;;6.10;3.45;;;22.80;91.90;;;;;;5010411;28;20632;-68
2022/08/11 06:53:04;;;;;;;9.10;3.28;;;22.90;92.00;;;;;;4990859;28;20265;-68
2022/08/11 07:01:12;;;;;;;4.32;3.20;;;22.90;91.60;;;;;;4990368;28;20264;-68
2022/08/11 07:03:45;;;;;;;4.82;3.55;;;23.00;91.60;;;;;;4990667;28;20222;-68
2022/08/11 07:06:27;;;;;;;4.20;3.67;;;23.10;91.50;;;;;;4990960;28;20210;-68
2022/08/11 07:29:35;;;;;;;5.07;3.50;;;23.50;91.50;;;;;;4974018;28;20208;-69
2022/08/11 07:32:14;;;;;;;5.65;3.33;;;23.50;91.50;;;;;;5009681;28;20205;-68
2022/08/11 07:34:47;;;;;;;4.38;3.40;;;23.50;91.70;;;;;;5009436;28;20197;-68
2022/08/11 07:37:19;;;;;;;4.93;3.08;;;23.60;91.50;;;;;;5009758;28;20197;-68
2022/08/11 07:39:50;;;;;;;4.25;3.25;;;23.70;91.40;;;;;;5009304;28;20197;-68
2022/08/11 07:42:23;;;;;;;3.22;2.92;;;23.70;91.50;;;;;;5009369;28;20205;-68
2022/08/11 07:53:10;;;;;;;3.40;3.10;;;24.00;91.20;;;;;;4989816;28;20249;-68
2022/08/11 07:55:37;;;;;;;8.15;3.40;;;24.00;91.20;;;;;;4989264;28;20225;-69
2022/08/11 08:20:12;;;;;;;5.35;2.88;;;24.50;90.20;;;;;;5008996;28;20209;-68
2022/08/11 08:22:39;;;;;;;2.90;2.70;;;24.60;89.80;;;;;;5008824;28;20229;-68
2022/08/11 08:25:08;;;;;;;7.18;3.00;;;24.60;89.50;;;;;;5008908;28;20205;-69
2022/08/11 08:27:37;;;;;;;7.25;2.80;;;24.60;89.10;;;;;;5008160;28;20210;-69
2022/08/11 08:32:51;;;;;;;4.35;2.70;;;24.80;89.50;;;;;;5008707;28;20205;-68
2022/08/11 08:35:19;;;;;;;7.07;3.03;;;24.80;89.70;;;;;;5008889;28;20216;-68
2022/08/11 08:37:46;;;;;;;4.93;3.10;;;24.90;90.00;;;;;;5008398;28;20206;-69
2022/08/11 08:40:14;;;;;;;6.55;4.30;;;24.90;90.00;;;;;;5008440;28;20220;-68
2022/08/11 08:42:50;;;;;;;6.00;3.28;;;25.00;89.80;;;;;;5008371;28;20555;-69
2022/08/11 08:45:17;;;;;;;7.03;3.20;;;25.00;89.50;;;;;;5008694;28;20193;-69
2022/08/11 08:47:48;;;;;;;5.00;2.92;;;25.10;89.00;;;;;;5008038;28;20825;-68
2022/08/11 08:50:18;;;;;;;7.53;2.95;;;25.20;88.90;;;;;;5008471;28;20562;-68
2022/08/11 08:52:52;;;;;;;7.63;3.22;;;25.20;88.40;;;;;;5008459;28;20624;-68
2022/08/11 08:55:21;;;;;;;16.15;3.50;;;25.30;88.50;;;;;;5008349;28;20194;-68
2022/08/11 08:57:51;;;;;;;13.60;3.72;;;25.40;87.10;;;;;;5008384;28;20213;-68
2022/08/11 09:00:20;;;;;;;8.93;3.08;;;25.40;87.10;;;;;;5008177;28;20241;-69
2022/08/11 09:02:49;;;;;;;4.15;2.50;;;25.40;87.40;;;;;;5008564;28;20324;-68
2022/08/11 09:05:18;;;;;;;4.82;2.95;;;25.50;87.70;;;;;;5008431;28;20206;-68
2022/08/11 09:07:47;;;;;;;2.90;2.70;;;25.50;87.60;;;;;;5008105;28;20300;-68
2022/08/11 09:10:16;;;;;;;7.07;2.97;;;25.60;87.20;;;;;;5007846;28;20268;-68
2022/08/11 09:12:45;;;;;;;3.92;2.50;;;25.70;86.40;;;;;;5007463;28;20217;-68
2022/08/11 09:15:13;;;;;;;8.35;3.10;;;25.80;85.70;;;;;;5007834;28;20304;-68
2022/08/11 09:17:43;;;;;;;4.32;3.03;;;25.80;86.00;;;;;;5007438;28;20727;-68
2022/08/11 09:20:13;;;;;;;6.32;2.50;;;25.80;86.60;;;;;;4988460;28;20210;-68
2022/08/11 09:28:20;;;;;;;4.00;2.67;;;26.00;85.00;;;;;;4988350;28;20202;-68
2022/08/11 09:30:53;;;;;;;6.00;2.50;;;26.10;83.70;;;;;;4988130;28;20217;-68
2022/08/11 09:33:21;;;;;;;8.18;2.50;;;26.20;83.70;;;;;;4988225;28;20289;-68
2022/08/11 09:35:50;;;;;;;2.40;2.30;;;26.20;84.10;;;;;;4987784;28;20678;-68
2022/08/11 09:41:09;;;;;;;4.35;2.47;;;26.30;83.00;;;;;;4987911;28;20977;-69
2022/08/11 09:46:29;;;;;;;3.10;2.80;;;26.40;83.20;;;;;;4988270;28;20318;-68
2022/08/11 09:48:59;;;;;;;4.30;2.80;;;26.40;83.30;;;;;;4998125;28;20245;-69
2022/08/11 09:51:29;;;;;;;5.63;2.90;;;26.40;82.10;;;;;;5007362;28;20744;-68
2022/08/11 09:53:59;;;;;;;4.88;2.63;;;26.50;82.00;;;;;;5007667;28;20687;-68
2022/08/11 09:59:12;;;;;;;6.97;2.78;;;26.70;81.10;;;;;;5007446;28;20646;-69
2022/08/11 10:01:43;;;;;;;3.28;2.72;;;26.70;81.70;;;;;;5007359;28;20637;-69
2022/08/11 10:04:15;;;;;;;3.45;2.50;;;26.70;80.40;;;;;;5007480;28;20228;-68
2022/08/11 10:07:01;;;;;;;3.55;2.75;;;26.70;80.30;;;;;;5007454;28;20204;-69
2022/08/11 10:09:35;;;;;;;4.78;2.28;;;26.80;80.50;;;;;;5007730;28;20193;-69
2022/08/11 10:12:07;;;;;;;2.55;2.42;;;26.80;80.40;;;;;;5007489;28;20201;-69
2022/08/11 10:17:25;;;;;;;2.80;2.30;;;26.90;80.40;;;;;;5007383;28;20243;-69
2022/08/11 10:19:56;;;;;;;6.82;2.58;;;27.00;79.40;;;;;;5006988;28;20669;-68
2022/08/11 10:27:58;;;;;;;6.03;2.50;;;27.20;78.90;;;;;;5007172;28;20201;-69
2022/08/11 10:35:58;;;;;;;3.50;2.30;;;27.30;76.70;;;;;;5009974;28;20227;-68
2022/08/11 10:38:26;;;;;;;7.15;2.53;;;27.40;76.90;;;;;;5011309;28;20280;-68
2022/08/11 10:43:38;;;;;;;3.35;2.35;;;27.50;77.80;;;;;;5009725;28;20217;-68
2022/08/11 10:48:54;;;;;;;2.40;2.25;;;27.60;77.40;;;;;;5010296;28;20283;-69
2022/08/11 10:59:34;;;;;;;5.25;2.60;;;27.90;76.10;;;;;;4949651;29;20249;-69
2022/08/11 11:02:03;;;;;;;3.22;2.30;;;27.80;76.00;;;;;;4949419;29;20204;-69
2022/08/11 11:04:40;;;;;;;2.35;2.15;;;27.90;74.20;;;;;;5009335;28;20237;-69
2022/08/11 11:07:16;;;;;;;2.70;2.50;;;28.00;74.20;;;;;;5010505;28;20197;-69
2022/08/11 11:09:48;;;;;;;5.00;2.55;;;28.10;73.50;;;;;;5009990;28;20671;-68
2022/08/11 11:17:56;;;;;;;4.70;2.60;;;28.40;74.30;;;;;;5009823;28;20232;-69
2022/08/11 11:20:26;;;;;;;3.15;2.30;;;28.50;74.20;;;;;;5010094;28;20194;-69
2022/08/11 11:22:57;;;;;;;3.50;2.47;;;28.50;74.50;;;;;;5010194;28;20212;-69
2022/08/11 11:25:36;;;;;;;4.13;2.72;;;28.50;74.40;;;;;;5009490;28;20213;-68
2022/08/11 11:28:29;;;;;;;4.93;2.88;;;28.60;74.80;;;;;;5009891;28;20553;-69
2022/08/11 11:31:11;;;;;;;3.42;2.30;;;28.70;73.70;;;;;;4979513;28;20974;-69
2022/08/11 11:34:15;;;;;;;5.93;2.83;;;28.80;73.70;;;;;;5009772;28;20247;-69
2022/08/11 11:36:47;;;;;;;4.40;2.42;;;28.80;73.70;;;;;;4962955;28;20213;-69
2022/08/11 11:39:16;;;;;;;5.78;3.22;;;28.80;73.40;;;;;;5009983;28;20200;-68
2022/08/11 11:41:43;;;;;;;2.92;2.60;;;28.80;73.80;;;;;;5009229;28;20205;-69
2022/08/11 11:44:13;;;;;;;13.07;3.78;;;28.90;73.80;;;;;;5009447;28;20233;-69
2022/08/11 11:46:40;;;;;;;4.70;2.50;;;29.00;72.70;;;;;;5008238;28;20212;-69
2022/08/11 11:49:09;;;;;;;4.28;2.70;;;29.00;72.40;;;;;;5009223;28;20213;-69
2022/08/11 11:51:37;;;;;;;6.60;2.88;;;29.00;72.60;;;;;;5009245;28;20588;-69
2022/08/11 11:54:05;;;;;;;5.55;2.70;;;29.10;73.40;;;;;;5009180;28;20664;-69
2022/08/11 11:56:32;;;;;;;4.10;2.63;;;29.10;73.50;;;;;;5009059;28;20213;-69
2022/08/11 12:01:45;;;;;;;4.13;2.97;;;29.10;72.20;;;;;;5008891;28;20192;-68
2022/08/11 12:04:17;;;;;;;4.03;2.70;;;29.20;71.70;;;;;;5009049;28;20248;-69
2022/08/11 12:06:45;;;;;;;7.60;2.63;;;29.10;71.60;;;;;;5008847;28;20226;-69
2022/08/11 12:09:17;;;;;;;5.43;2.50;;;29.20;70.50;;;;;;5009250;28;20626;-69
2022/08/11 12:14:29;;;;;;;7.63;2.90;;;29.20;71.30;;;;;;5008997;28;20244;-69
2022/08/11 12:16:57;;;;;;;5.60;3.03;;;29.10;72.50;;;;;;5008494;28;20696;-69
2022/08/11 12:19:28;;;;;;;12.02;2.85;;;29.20;73.00;;;;;;5008875;28;20217;-69
2022/08/11 12:27:27;;;;;;;3.97;2.50;;;29.30;71.20;;;;;;5008593;28;20200;-69
2022/08/11 12:29:56;;;;;;;10.73;3.13;;;29.30;71.20;;;;;;5008483;28;20209;-68
2022/08/11 12:32:26;;;;;;;5.70;2.50;;;29.30;71.20;;;;;;5008858;28;20209;-68
2022/08/11 12:34:56;;;;;;;2.58;2.35;;;29.40;72.20;;;;;;5008598;28;20237;-68
2022/08/11 12:37:30;;;;;;;8.82;2.55;;;29.40;71.70;;;;;;5008515;28;20240;-68
2022/08/11 12:45:34;;;;;;;4.05;2.72;;;29.40;70.80;;;;;;5008324;28;20344;-68
2022/08/11 12:53:52;;;;;;;4.93;2.50;;;29.50;70.20;;;;;;4997580;28;20212;-68
2022/08/11 13:04:51;;;;;;;3.15;2.30;;;29.40;72.50;;;;;;5005873;28;20240;-68
2022/08/11 13:07:20;;;;;;;3.38;2.72;;;29.50;72.20;;;;;;5005980;28;20284;-68
2022/08/11 13:09:47;;;;;;;3.53;2.78;;;29.50;71.30;;;;;;5004171;28;20217;-68
2022/08/11 13:15:00;;;;;;;4.32;2.50;;;29.60;69.60;;;;;;5007689;28;20201;-68
2022/08/11 13:17:28;;;;;;;5.20;2.60;;;29.60;70.60;;;;;;5008113;28;20233;-68
2022/08/11 13:19:57;;;;;;;3.70;2.35;;;29.60;70.30;;;;;;5006909;28;20213;-68
2022/08/11 13:22:27;;;;;;;8.82;3.38;;;29.70;69.20;;;;;;5008066;28;20215;-68
2022/08/11 13:24:57;;;;;;;4.07;2.70;;;29.70;68.80;;;;;;4989757;28;20226;-68
2022/08/11 13:27:24;;;;;;;2.97;2.67;;;29.80;69.20;;;;;;4988234;28;20226;-68
2022/08/11 13:31:09;;;;;;;4.28;2.53;;;29.80;69.40;;;;;;4988027;28;20210;-68
2022/08/11 13:32:41;;;;;;;7.15;2.80;;;29.80;69.30;;;;;;4987766;28;20398;-68
2022/08/11 13:35:09;;;;;;;2.88;2.47;;;29.90;69.30;;;;;;4988358;28;20234;-68
2022/08/11 13:37:38;;;;;;;2.95;2.53;;;29.90;69.70;;;;;;4988284;28;20240;-68
2022/08/11 13:40:06;;;;;;;6.97;2.42;;;29.90;69.00;;;;;;4988210;28;20210;-68
2022/08/11 13:42:34;;;;;;;2.70;2.50;;;29.90;67.40;;;;;;4987895;28;20206;-68
2022/08/11 13:45:01;;;;;;;2.95;2.58;;;29.80;68.10;;;;;;4988194;28;20304;-68
2022/08/11 13:47:29;;;;;;;2.50;2.30;;;29.80;68.30;;;;;;4988389;28;20210;-68
2022/08/11 13:49:57;;;;;;;6.10;2.50;;;29.90;68.80;;;;;;5006366;28;20278;-68
2022/08/11 13:52:25;;;;;;;2.70;2.20;;;29.80;68.40;;;;;;5007743;28;20209;-69
2022/08/11 13:54:53;;;;;;;3.28;2.55;;;29.90;68.60;;;;;;5007651;28;20209;-69
2022/08/11 13:57:21;;;;;;;4.10;2.35;;;29.90;68.00;;;;;;5007446;28;20202;-69
2022/08/11 14:00:08;;;;;;;6.32;2.67;;;30.00;67.90;;;;;;5007463;28;20244;-69
2022/08/11 14:02:37;;;;;;;2.20;2.10;;;30.00;67.30;;;;;;5007417;28;20676;-69
2022/08/11 14:05:10;;;;;;;5.35;2.38;;;30.10;67.30;;;;;;5007430;28;20734;-68
2022/08/11 14:07:39;;;;;;;4.22;2.33;;;30.10;67.10;;;;;;5007568;28;20664;-68
2022/08/11 14:10:11;;;;;;;4.90;2.30;;;30.10;67.30;;;;;;5009242;28;20213;-68
2022/08/11 14:15:31;;;;;;;4.05;2.30;;;30.20;67.00;;;;;;4992292;28;20793;-70
2022/08/11 14:18:03;;;;;;;4.07;2.13;;;30.20;67.00;;;;;;4993692;28;20198;-68
2022/08/11 14:23:15;;;;;;;5.50;2.50;;;30.20;66.50;;;;;;5004684;28;20187;-69
2022/08/11 14:28:25;;;;;;;4.57;2.47;;;30.20;66.90;;;;;;4995557;28;20205;-68
2022/08/11 14:30:55;;;;;;;3.85;2.28;;;30.20;66.50;;;;;;5011313;28;20375;-68
2022/08/11 14:33:22;;;;;;;4.78;2.53;;;30.20;67.30;;;;;;5011558;28;20213;-69
2022/08/11 14:35:49;;;;;;;5.18;2.20;;;30.20;67.90;;;;;;5011127;28;20217;-68
2022/08/11 14:38:18;;;;;;;4.13;2.15;;;30.20;67.00;;;;;;5011223;28;20206;-68
2022/08/11 14:49:01;;;;;;;1.90;1.80;;;30.30;64.90;;;;;;5010614;28;20244;-68
2022/08/11 14:51:28;;;;;;;7.88;2.60;;;30.30;66.20;;;;;;5010803;28;20209;-70
2022/08/11 14:56:34;;;;;;;6.65;2.40;;;30.30;65.10;;;;;;5010288;28;20580;-68
2022/08/11 14:56:43;;;;;;;4.28;2.40;;;30.40;63.90;;;;;;5009838;28;20288;-68
2022/08/11 14:59:11;;;;;;;4.45;2.10;;;30.40;64.90;;;;;;5010272;28;20245;-68
2022/08/11 15:04:24;;;;;;;4.95;2.08;;;30.50;64.40;;;;;;5010009;28;20224;-68
2022/08/11 15:06:52;;;;;;;4.88;2.20;;;30.50;63.60;;;;;;5010058;28;20237;-68
2022/08/11 15:09:19;;;;;;;8.07;2.90;;;30.50;63.50;;;;;;5010437;28;20292;-68
2022/08/11 15:17:17;;;;;;;30.45;4.25;;;30.60;62.80;;;;;;4990492;28;20245;-69
2022/08/11 15:25:11;;;;;;;5.22;1.73;;;30.60;62.70;;;;;;4990378;28;20224;-68
2022/08/11 15:38:53;;;;;;;6.35;1.83;;;30.60;62.60;;;;;;5009657;28;20634;-68
2022/08/11 15:47:00;;;;;;;2.90;1.80;;;30.70;61.30;;;;;;5009572;28;20208;-68
2022/08/11 15:49:31;;;;;;;4.20;1.80;;;30.70;62.00;;;;;;5009531;28;20209;-69
2022/08/11 15:52:03;;;;;;;2.80;1.65;;;30.70;60.80;;;;;;5008989;28;20288;-68
2022/08/11 15:54:33;;;;;;;1.85;1.75;;;30.70;61.20;;;;;;5009233;28;20204;-69
2022/08/11 15:57:02;;;;;;;3.92;1.80;;;30.70;61.30;;;;;;5009199;28;20214;-68
2022/08/11 16:05:09;;;;;;;1.73;1.63;;;30.60;61.00;;;;;;5009047;28;20268;-68
2022/08/11 16:07:38;;;;;;;3.40;1.80;;;30.60;60.40;;;;;;5009124;28;20214;-68
2022/08/11 16:10:08;;;;;;;2.33;1.60;;;30.50;60.30;;;;;;5009289;28;20205;-68
2022/08/11 16:12:39;;;;;;;13.63;2.67;;;30.50;60.00;;;;;;5008945;28;20245;-68
2022/08/11 16:17:59;;;;;;;3.42;1.50;;;30.40;59.70;;;;;;5008573;28;20204;-68
2022/08/11 16:20:29;;;;;;;3.33;1.60;;;30.40;60.00;;;;;;5009063;28;20260;-68
2022/08/11 16:22:58;;;;;;;5.32;1.67;;;30.40;59.50;;;;;;4998833;28;20205;-68
2022/08/11 16:25:26;;;;;;;3.28;2.10;;;30.40;61.50;;;;;;4997954;28;21062;-68
2022/08/11 16:27:57;;;;;;;3.35;2.60;;;30.30;72.40;;;;;;4996814;28;20408;-67
2022/08/11 16:30:27;;;;;;;2.90;2.13;;;30.20;74.70;;;;;;5000776;28;20194;-68
2022/08/11 16:32:55;;;;;;;2.42;1.65;;;30.10;74.20;;;;;;4993202;28;20198;-68
2022/08/11 16:41:05;;;;;;;5.47;1.60;;;30.40;61.50;;;;;;5005049;28;20599;-68
2022/08/11 16:49:10;;;;;;;4.82;1.60;;;30.60;59.30;;;;;;5019484;28;20208;-69
2022/08/11 16:51:37;;;;;;;9.30;2.08;;;30.60;59.90;;;;;;5018582;28;20208;-68
2022/08/11 16:54:04;;;;;;;7.00;1.98;;;30.70;59.80;;;;;;5016777;28;20668;-68
2022/08/11 16:56:36;;;;;;;2.88;1.50;;;30.70;59.70;;;;;;5024913;28;20219;-68
2022/08/11 16:59:13;;;;;;;13.93;2.25;;;30.70;59.70;;;;;;5024717;28;20242;-68
2022/08/11 17:01:44;;;;;;;4.10;1.70;;;30.70;59.20;;;;;;5008468;28;20200;-68
2022/08/11 17:18:38;;;;;;;3.28;1.50;;;30.90;59.30;;;;;;4989405;28;20215;-68
2022/08/11 17:21:04;;;;;;;1.60;1.50;;;30.80;59.50;;;;;;5005395;28;20202;-68
2022/08/11 17:23:46;;;;;;;1.48;1.38;;;30.70;59.10;;;;;;5005860;28;20257;-68
2022/08/11 17:26:16;;;;;;;1.83;1.65;;;30.60;58.90;;;;;;5005573;28;20232;-68
2022/08/11 17:28:44;;;;;;;3.05;1.52;;;30.60;58.80;;;;;;5005217;28;20337;-68
2022/08/11 17:36:45;;;;;;;3.58;1.70;;;30.40;59.70;;;;;;5005876;28;20275;-67
2022/08/11 17:39:15;;;;;;;5.50;1.80;;;30.30;59.20;;;;;;4997499;28;20237;-67
2022/08/11 17:50:03;;;;;;;2.20;2.00;;;30.00;59.30;;;;;;5007904;28;20212;-67
2022/08/11 18:00:45;;;;;;;1.92;1.73;;;29.70;58.60;;;;;;4990125;28;20246;-68
2022/08/11 18:03:31;;;;;;;6.78;2.05;;;29.60;58.50;;;;;;4989945;28;20950;-68
2022/08/11 18:06:02;;;;;;;9.80;2.10;;;29.60;58.80;;;;;;4994826;28;20312;-68
